Portada
METAR-TAF:

METAR-TAF

Aeroports :

Kerman, Iran

latitud: 30-15N, longitud: 056-58E, altitud: 1748 m

Observació

L'informe es va fer fa 22 minuts, a les 10:30 UTC
Vent 10 kt del Est
Temperatura 36°C
Humitat 5%
Pressió 1017 hPa
Visibilitat 10 km o més
Escasses núvols a una alçada de 4500 ft

METAR: OIKK 261030Z 09010KT 9999 FEW045 36/M09 Q1017 A3004

Hora: 15:22 (10:52 UTC)

Pronòstic

L'informe es va fer fa 5 hores i 22 minuts, a les 05:30 UTC
Pronòstic vàlid del 26 a les 06 UTC al 27 a les 12 UTC
Vent 8 kt del Nord
Visibilitat: 7000 m
Temporalment
l' 26 a les 09 UTC al 26 a les 15 UTC
Vent 16 kt del Nord/Nord-Est amb ràfegues de 26 kt
Visibilitat: 4000 m
sorra
Temporalment
l' 27 a les 10 UTC al 27 a les 12 UTC
Vent 20 kt del Est amb ràfegues de 30 kt
Visibilitat: 3000 m
sorra

TAF: OIKK 260530Z 2606/2712 36008KT 7000 NSC TEMPO 2609/2615 03016G26KT 4000 SA TEMPO 2710/2712 09020G30KT 3000 SA

Observacions i pronòstics meteorològics de més de 4000 aeroports (METAR i TAF).

Les estacions disponibles són els punts grocs i vermells al mapa.

Posi el ratolí al punt desitjat per veure el nom de l'estació.

Feu clic per veure les observacions i els pronòstics meteorològics.

Per canviar el mapa: feu clic els botons verds amb una creu de color negre per apropar; al botó verd amb un guió per allunyar la imatge; o en les fletxes verdes per a mapes adjacents.


METAR-TAF: